Time;durP1;ratioP1;P1;durP2;ratioP2;P2;SDS_P1;SDS_P2;PMS_P1;PMS_P2;Temp;Humidity;BMP_temperature;BMP_pressure;BME280_temperature;BME280_humidity;BME280_pressure;Samples;Min_cycle;Max_cycle;Signal;HPM_P1;HPM_P2
2023/03/28 00:00:07;;;;;;;0.30;0.30;;;16.70;67.90;;;;;;5005989;28;20090;-78
2023/03/28 00:02:33;;;;;;;0.40;0.40;;;16.70;67.90;;;;;;5003917;28;20030;-78
2023/03/28 00:04:59;;;;;;;0.30;0.30;;;16.70;67.80;;;;;;5003715;28;20153;-79
2023/03/28 00:07:26;;;;;;;0.20;0.17;;;16.70;67.90;;;;;;5008497;28;20401;-79
2023/03/28 00:09:51;;;;;;;0.20;0.20;;;16.70;67.90;;;;;;5006697;28;20034;-79
2023/03/28 00:12:17;;;;;;;0.20;0.20;;;16.70;67.90;;;;;;5010056;28;20065;-79
2023/03/28 00:14:44;;;;;;;0.60;0.20;;;16.70;67.90;;;;;;5007910;28;20065;-78
2023/03/28 00:17:11;;;;;;;0.20;0.20;;;16.70;67.90;;;;;;5023869;28;20111;-79
2023/03/28 00:19:39;;;;;;;0.40;0.30;;;16.70;67.90;;;;;;5010270;28;20065;-79
2023/03/28 00:22:05;;;;;;;0.25;0.25;;;16.70;67.80;;;;;;5006281;28;20080;-78
2023/03/28 00:24:37;;;;;;;0.82;0.20;;;16.70;67.80;;;;;;5009184;28;20092;-78
2023/03/28 00:27:04;;;;;;;0.30;0.28;;;16.70;67.80;;;;;;5009516;28;20073;-78
2023/03/28 00:29:30;;;;;;;1.08;0.30;;;16.70;67.80;;;;;;5006903;28;20520;-78
2023/03/28 00:31:56;;;;;;;0.30;0.20;;;16.70;67.80;;;;;;5010340;28;20057;-78
2023/03/28 00:34:22;;;;;;;0.20;0.20;;;16.70;67.80;;;;;;5022449;28;20049;-79
2023/03/28 00:36:47;;;;;;;0.30;0.30;;;16.70;67.80;;;;;;5009733;28;20066;-78
2023/03/28 00:39:13;;;;;;;0.20;0.20;;;16.70;67.90;;;;;;5007825;28;20038;-78
2023/03/28 00:41:41;;;;;;;0.10;0.10;;;16.70;67.80;;;;;;5008252;28;20041;-78
2023/03/28 00:44:44;;;;;;;0.30;0.30;;;16.70;67.80;;;;;;4992099;28;20420;-79
2023/03/28 00:47:16;;;;;;;0.20;0.20;;;16.70;67.80;;;;;;5006536;28;20173;-78
2023/03/28 00:49:42;;;;;;;0.20;0.20;;;16.70;67.80;;;;;;5008658;28;20049;-78
2023/03/28 00:52:08;;;;;;;0.22;0.22;;;16.60;67.80;;;;;;5001941;28;20053;-78
2023/03/28 00:54:38;;;;;;;0.20;0.20;;;16.60;67.80;;;;;;5006658;28;20503;-78
2023/03/28 00:57:04;;;;;;;0.38;0.38;;;16.60;67.80;;;;;;5008033;28;20045;-78
2023/03/28 00:59:31;;;;;;;0.30;0.30;;;16.60;67.80;;;;;;5006248;28;20058;-78
2023/03/28 01:01:57;;;;;;;0.30;0.25;;;16.60;67.80;;;;;;5006787;28;20125;-78
2023/03/28 01:04:23;;;;;;;0.30;0.20;;;16.60;67.80;;;;;;5003571;28;20116;-78
2023/03/28 01:06:53;;;;;;;0.30;0.30;;;16.60;67.80;;;;;;5020832;28;20065;-78
2023/03/28 01:09:19;;;;;;;0.25;0.20;;;16.60;67.80;;;;;;5004885;28;20054;-78
2023/03/28 01:11:45;;;;;;;0.30;0.30;;;16.60;67.80;;;;;;5003205;28;20535;-78
2023/03/28 01:14:15;;;;;;;0.32;0.30;;;16.60;67.80;;;;;;5002698;28;20381;-78
2023/03/28 01:16:41;;;;;;;0.30;0.30;;;16.60;67.80;;;;;;5000567;28;20038;-78
2023/03/28 01:19:25;;;;;;;0.40;0.30;;;16.60;67.80;;;;;;5009326;28;20439;-78
2023/03/28 01:22:27;;;;;;;0.30;0.30;;;16.60;67.80;;;;;;5008784;28;20049;-78
2023/03/28 01:24:56;;;;;;;0.20;0.20;;;16.60;67.70;;;;;;5006128;28;20046;-78
2023/03/28 01:27:30;;;;;;;0.22;0.22;;;16.60;67.70;;;;;;5005869;28;20042;-78
2023/03/28 01:30:00;;;;;;;;;;;16.60;67.60;;;;;;5008438;28;20509;-79
2023/03/28 01:32:44;;;;;;;1.75;0.30;;;16.60;67.60;;;;;;5005856;28;19925;-78
2023/03/28 01:35:24;;;;;;;0.30;0.30;;;16.70;67.70;;;;;;5003939;28;20101;-79
2023/03/28 01:37:58;;;;;;;0.17;0.17;;;16.60;67.60;;;;;;5004449;28;20296;-78
2023/03/28 01:40:24;;;;;;;;;;;16.60;67.60;;;;;;5018945;28;20099;-78
2023/03/28 01:43:07;;;;;;;0.20;0.20;;;16.60;67.60;;;;;;5003160;28;19913;-79
2023/03/28 01:45:54;;;;;;;0.30;0.30;;;16.60;67.60;;;;;;5015331;28;20078;-78
2023/03/28 01:48:32;;;;;;;0.28;0.28;;;16.60;67.60;;;;;;5003902;28;20541;-79
2023/03/28 01:51:23;;;;;;;0.30;0.30;;;16.60;67.60;;;;;;5008775;28;20042;-79
2023/03/28 01:54:20;;;;;;;0.20;0.20;;;16.60;67.70;;;;;;5004701;28;20042;-79
2023/03/28 01:56:49;;;;;;;0.30;0.30;;;16.60;67.60;;;;;;4979924;28;20059;-78
2023/03/28 01:59:23;;;;;;;0.40;0.15;;;16.60;67.70;;;;;;4966431;28;20053;-79
2023/03/28 02:02:02;;;;;;;0.25;0.25;;;16.60;67.60;;;;;;4950043;28;20057;-79
2023/03/28 02:04:28;;;;;;;0.28;0.28;;;16.60;67.70;;;;;;4965190;28;20089;-79
2023/03/28 02:06:53;;;;;;;0.30;0.22;;;16.60;67.70;;;;;;4978890;28;20073;-78
2023/03/28 02:09:20;;;;;;;0.20;0.20;;;16.60;67.70;;;;;;4965906;28;20042;-78
2023/03/28 02:11:47;;;;;;;0.20;0.20;;;16.60;67.60;;;;;;4968004;28;20074;-79
2023/03/28 02:14:18;;;;;;;0.20;0.20;;;16.60;67.60;;;;;;4968043;28;20138;-78
2023/03/28 02:16:44;;;;;;;0.30;0.30;;;16.60;67.70;;;;;;4965916;28;20089;-78
2023/03/28 02:19:10;;;;;;;0.15;0.15;;;16.60;67.70;;;;;;4977270;28;20173;-78
2023/03/28 02:21:52;;;;;;;0.40;0.30;;;16.60;67.70;;;;;;4953188;28;20121;-79
2023/03/28 02:24:18;;;;;;;0.30;0.30;;;16.60;67.70;;;;;;4980360;28;20049;-79
2023/03/28 02:26:44;;;;;;;0.20;0.20;;;16.60;67.70;;;;;;4967799;28;20042;-78
2023/03/28 02:29:09;;;;;;;0.20;0.20;;;16.60;67.70;;;;;;4966695;28;20049;-79
2023/03/28 02:31:35;;;;;;;0.43;0.20;;;16.60;67.70;;;;;;4966405;28;20520;-79
2023/03/28 02:34:01;;;;;;;0.20;0.20;;;16.60;67.60;;;;;;4989831;28;20050;-79
2023/03/28 02:36:32;;;;;;;0.35;0.35;;;16.60;67.60;;;;;;5005610;28;20052;-78
2023/03/28 02:39:04;;;;;;;0.20;0.20;;;16.60;67.70;;;;;;5005750;28;20092;-78
2023/03/28 02:41:58;;;;;;;0.25;0.25;;;16.60;67.60;;;;;;5000981;28;20046;-78
2023/03/28 02:44:26;;;;;;;0.25;0.20;;;16.50;67.60;;;;;;5005028;28;20046;-78
2023/03/28 02:47:14;;;;;;;0.10;0.10;;;16.60;67.70;;;;;;5003528;28;20077;-79
2023/03/28 02:49:50;;;;;;;0.15;0.15;;;16.60;67.70;;;;;;5005115;28;20038;-78
2023/03/28 02:53:00;;;;;;;0.38;0.20;;;16.60;67.60;;;;;;5005044;28;20503;-78
2023/03/28 02:55:43;;;;;;;0.20;0.20;;;16.60;67.60;;;;;;5001481;28;20053;-78
2023/03/28 02:58:20;;;;;;;0.30;0.30;;;16.60;67.60;;;;;;5005906;28;20057;-78
2023/03/28 03:00:47;;;;;;;0.17;0.17;;;16.60;67.60;;;;;;5001681;28;20046;-78
2023/03/28 03:03:12;;;;;;;0.00;0.00;;;16.50;67.60;;;;;;4990140;28;20037;-78
2023/03/28 03:05:38;;;;;;;0.20;0.20;;;16.50;67.60;;;;;;5003860;28;20049;-78
2023/03/28 03:08:04;;;;;;;0.20;0.20;;;16.50;67.50;;;;;;5006683;28;20029;-79
2023/03/28 03:10:29;;;;;;;0.13;0.13;;;16.50;67.50;;;;;;5005229;28;20463;-78
2023/03/28 03:12:55;;;;;;;0.30;0.30;;;16.50;67.50;;;;;;5001385;28;20038;-79
2023/03/28 03:15:21;;;;;;;0.10;0.10;;;16.50;67.60;;;;;;5005174;28;20095;-79
2023/03/28 03:17:46;;;;;;;0.20;0.17;;;16.50;67.60;;;;;;5003128;28;20375;-78
2023/03/28 03:20:12;;;;;;;0.20;0.20;;;16.50;67.50;;;;;;5006898;28;20854;-78
2023/03/28 03:22:38;;;;;;;0.25;0.25;;;16.50;67.50;;;;;;5001301;28;20503;-79
2023/03/28 03:25:06;;;;;;;0.30;0.25;;;16.50;67.50;;;;;;5002096;28;20504;-78
2023/03/28 03:27:33;;;;;;;0.20;0.20;;;16.50;67.50;;;;;;5003261;28;20511;-78
2023/03/28 03:29:58;;;;;;;1.75;0.20;;;16.50;67.50;;;;;;5002573;28;20042;-78
2023/03/28 03:32:24;;;;;;;0.30;0.30;;;16.50;67.50;;;;;;5004026;28;20061;-78
2023/03/28 03:34:50;;;;;;;0.20;0.20;;;16.50;67.50;;;;;;5003378;28;20064;-78
2023/03/28 03:37:16;;;;;;;0.13;0.13;;;16.50;67.50;;;;;;5020870;28;20049;-78
2023/03/28 03:39:45;;;;;;;0.40;0.30;;;16.50;67.50;;;;;;5000856;28;20049;-78
2023/03/28 03:42:11;;;;;;;0.25;0.25;;;16.50;67.50;;;;;;5004281;28;20045;-78
2023/03/28 03:44:37;;;;;;;0.17;0.15;;;16.50;67.50;;;;;;5005250;28;20042;-79
2023/03/28 03:47:03;;;;;;;0.20;0.10;;;16.50;67.40;;;;;;5004430;28;20100;-78
2023/03/28 03:49:28;;;;;;;0.10;0.10;;;16.50;67.50;;;;;;5003418;28;20396;-78
2023/03/28 03:51:54;;;;;;;0.10;0.10;;;16.50;67.40;;;;;;5004495;28;20049;-78
2023/03/28 03:54:19;;;;;;;0.20;0.17;;;16.50;67.50;;;;;;5003989;28;20476;-78
2023/03/28 03:56:45;;;;;;;0.28;0.28;;;16.50;67.50;;;;;;5006376;28;20052;-78
2023/03/28 03:59:11;;;;;;;0.45;0.20;;;16.50;67.50;;;;;;5006224;28;20411;-78
2023/03/28 04:01:38;;;;;;;0.20;0.20;;;16.50;67.40;;;;;;5006614;28;20717;-78
2023/03/28 04:04:06;;;;;;;0.10;0.10;;;16.50;67.40;;;;;;5004748;28;20042;-78
2023/03/28 04:06:32;;;;;;;0.20;0.20;;;16.50;67.30;;;;;;5002294;28;20080;-79
2023/03/28 04:08:57;;;;;;;0.10;0.10;;;16.50;67.30;;;;;;4986991;28;20125;-78
2023/03/28 04:11:23;;;;;;;0.20;0.20;;;16.50;67.30;;;;;;5004024;28;20069;-78
2023/03/28 04:13:49;;;;;;;0.20;0.20;;;16.50;67.30;;;;;;4999753;28;20457;-78
2023/03/28 04:16:14;;;;;;;0.20;0.20;;;16.50;67.40;;;;;;5003103;28;20030;-78
2023/03/28 04:18:40;;;;;;;0.10;0.10;;;16.50;67.40;;;;;;5005467;28;20564;-78
2023/03/28 04:21:08;;;;;;;0.20;0.10;;;16.50;67.40;;;;;;5006608;28;20038;-78
2023/03/28 04:23:37;;;;;;;0.17;0.17;;;16.50;67.40;;;;;;5004091;28;20036;-79
2023/03/28 04:26:03;;;;;;;0.73;0.20;;;16.50;67.40;;;;;;5001997;28;20121;-79
2023/03/28 04:28:28;;;;;;;0.20;0.20;;;16.50;67.40;;;;;;5002641;28;20057;-78
2023/03/28 04:30:57;;;;;;;0.30;0.30;;;16.50;67.40;;;;;;5001090;28;20046;-78
2023/03/28 04:33:32;;;;;;;0.30;0.10;;;16.40;67.30;;;;;;5017143;28;20046;-78
2023/03/28 04:36:01;;;;;;;0.47;0.10;;;16.40;67.30;;;;;;5014036;28;20045;-78
2023/03/28 04:38:27;;;;;;;0.10;0.10;;;16.40;67.30;;;;;;5006142;28;20507;-78
2023/03/28 04:40:56;;;;;;;0.22;0.22;;;16.40;67.30;;;;;;5004722;28;20073;-79
2023/03/28 04:43:26;;;;;;;0.10;0.10;;;16.40;67.30;;;;;;5005045;28;20495;-78
2023/03/28 04:45:54;;;;;;;0.30;0.17;;;16.40;67.30;;;;;;5002908;28;20042;-78
2023/03/28 04:48:21;;;;;;;0.10;0.10;;;16.50;67.20;;;;;;5002486;28;20042;-78
2023/03/28 04:50:46;;;;;;;0.20;0.20;;;16.40;67.30;;;;;;5004525;28;20506;-79
2023/03/28 04:53:12;;;;;;;0.13;0.13;;;16.40;67.20;;;;;;5006685;28;20056;-79
2023/03/28 04:55:38;;;;;;;0.20;0.20;;;16.40;67.20;;;;;;5004595;28;20095;-78
2023/03/28 04:58:05;;;;;;;0.20;0.20;;;16.40;67.20;;;;;;5007721;28;20507;-79
2023/03/28 05:00:30;;;;;;;0.10;0.10;;;16.40;67.10;;;;;;5008311;28;20121;-78
2023/03/28 05:02:58;;;;;;;0.20;0.13;;;16.40;67.10;;;;;;5008351;28;20169;-78
2023/03/28 05:05:24;;;;;;;0.20;0.20;;;16.40;67.20;;;;;;5005769;28;20087;-79
2023/03/28 05:07:50;;;;;;;0.20;0.20;;;16.40;67.10;;;;;;5008740;28;20124;-78
2023/03/28 05:10:16;;;;;;;0.17;0.17;;;16.40;67.10;;;;;;5020558;28;20099;-78
2023/03/28 05:12:41;;;;;;;0.20;0.20;;;16.40;67.10;;;;;;5005413;28;20065;-79
2023/03/28 05:15:07;;;;;;;0.25;0.25;;;16.40;67.10;;;;;;5008731;28;21668;-78
2023/03/28 05:17:33;;;;;;;0.30;0.30;;;16.50;67.10;;;;;;5004434;28;20042;-78
2023/03/28 05:19:58;;;;;;;0.30;0.30;;;16.40;67.00;;;;;;5004824;28;20046;-78
2023/03/28 05:22:24;;;;;;;0.10;0.10;;;16.40;67.00;;;;;;5006929;28;20396;-78
2023/03/28 05:24:50;;;;;;;0.20;0.20;;;16.40;67.10;;;;;;5018353;28;20601;-78
2023/03/28 05:27:16;;;;;;;0.20;0.20;;;16.40;67.10;;;;;;5006339;28;20637;-78
2023/03/28 05:29:42;;;;;;;0.20;0.20;;;16.40;67.10;;;;;;5005521;28;20042;-79
2023/03/28 05:32:08;;;;;;;0.17;0.10;;;16.40;67.10;;;;;;4988988;28;20444;-78
2023/03/28 05:34:34;;;;;;;0.20;0.10;;;16.40;67.10;;;;;;5005860;28;20411;-79
2023/03/28 05:37:00;;;;;;;0.20;0.20;;;16.40;67.10;;;;;;5002100;28;20446;-79
2023/03/28 05:39:26;;;;;;;0.10;0.10;;;16.50;67.00;;;;;;5003645;28;20046;-78
2023/03/28 05:41:52;;;;;;;0.30;0.30;;;16.40;67.00;;;;;;5003698;28;20100;-79
2023/03/28 05:44:18;;;;;;;0.30;0.30;;;16.50;67.10;;;;;;4998008;28;20050;-79
2023/03/28 05:46:43;;;;;;;0.20;0.20;;;16.50;67.10;;;;;;5004307;28;20493;-79
2023/03/28 05:49:10;;;;;;;0.28;0.28;;;16.40;67.00;;;;;;5000565;28;20523;-78
2023/03/28 05:51:36;;;;;;;0.47;0.20;;;16.50;67.20;;;;;;5005641;28;20054;-80
2023/03/28 05:54:02;;;;;;;0.57;0.30;;;16.50;67.20;;;;;;5006489;28;20061;-78
2023/03/28 05:56:27;;;;;;;0.30;0.30;;;16.50;67.50;;;;;;4988681;28;20046;-79
2023/03/28 05:58:53;;;;;;;0.45;0.32;;;16.40;67.70;;;;;;5016455;28;20053;-76
2023/03/28 06:01:22;;;;;;;0.35;0.30;;;16.40;67.90;;;;;;5005149;28;20046;-77
2023/03/28 06:03:48;;;;;;;0.40;0.40;;;16.50;67.80;;;;;;5000494;28;20383;-78
2023/03/28 06:06:14;;;;;;;1.83;0.28;;;16.50;67.80;;;;;;5001205;28;20088;-79
2023/03/28 06:08:40;;;;;;;0.13;0.13;;;16.50;67.70;;;;;;5020920;28;20051;-78
2023/03/28 06:11:06;;;;;;;1.33;0.30;;;16.60;67.90;;;;;;5004880;28;20046;-77
2023/03/28 06:13:32;;;;;;;0.30;0.30;;;16.60;67.60;;;;;;4653018;28;10001139;-76
2023/03/28 06:15:57;;;;;;;0.88;0.35;;;16.50;67.50;;;;;;4997925;28;20041;-75
2023/03/28 06:18:23;;;;;;;0.32;0.30;;;16.50;67.60;;;;;;5000881;28;20467;-75
2023/03/28 06:20:49;;;;;;;0.85;0.30;;;16.50;67.50;;;;;;5003077;28;20050;-75
2023/03/28 06:23:15;;;;;;;0.20;0.20;;;16.40;67.60;;;;;;4986064;28;20130;-76
2023/03/28 06:25:40;;;;;;;0.45;0.20;;;16.40;67.60;;;;;;5001324;28;20121;-76
2023/03/28 06:28:06;;;;;;;0.60;0.20;;;16.40;67.60;;;;;;5000029;28;20056;-76
2023/03/28 06:30:31;;;;;;;0.30;0.30;;;16.40;67.50;;;;;;5001009;28;20112;-77
2023/03/28 06:32:57;;;;;;;0.20;0.20;;;16.40;67.30;;;;;;5001885;28;20510;-77
2023/03/28 06:35:22;;;;;;;0.22;0.13;;;16.50;67.50;;;;;;5002386;28;20034;-76
2023/03/28 06:37:48;;;;;;;1.35;0.30;;;16.50;67.40;;;;;;4998913;28;20026;-76
2023/03/28 06:40:14;;;;;;;0.17;0.17;;;16.50;67.50;;;;;;5000240;28;20054;-76
2023/03/28 06:42:39;;;;;;;0.20;0.20;;;16.50;67.60;;;;;;5000208;28;20498;-76
2023/03/28 06:45:06;;;;;;;1.38;0.20;;;16.40;67.50;;;;;;5000302;28;20046;-76
2023/03/28 06:47:31;;;;;;;0.20;0.20;;;16.40;67.50;;;;;;4991057;28;20053;-76
2023/03/28 06:49:57;;;;;;;0.68;0.20;;;16.40;67.40;;;;;;5003607;28;20053;-76
2023/03/28 06:52:22;;;;;;;0.47;0.25;;;16.40;67.40;;;;;;4985295;28;20507;-76
2023/03/28 06:54:48;;;;;;;0.40;0.30;;;16.40;67.50;;;;;;5002045;28;20137;-76
2023/03/28 06:57:15;;;;;;;0.20;0.20;;;16.40;67.40;;;;;;5000441;28;20100;-76
2023/03/28 06:59:41;;;;;;;0.13;0.13;;;16.50;67.60;;;;;;4996624;28;20060;-78
2023/03/28 07:02:10;;;;;;;0.30;0.30;;;16.50;67.60;;;;;;5001040;28;20038;-77
2023/03/28 07:04:36;;;;;;;0.82;0.22;;;16.40;67.60;;;;;;5005709;28;20057;-77
2023/03/28 07:07:02;;;;;;;0.43;0.32;;;16.40;67.70;;;;;;5014915;28;20044;-77
2023/03/28 07:09:27;;;;;;;0.15;0.15;;;16.40;67.70;;;;;;5002412;28;20053;-76
2023/03/28 07:11:53;;;;;;;1.30;0.30;;;16.40;67.60;;;;;;5005392;28;20034;-76
2023/03/28 07:14:18;;;;;;;0.40;0.40;;;16.50;67.50;;;;;;5003827;28;20030;-76
2023/03/28 07:16:44;;;;;;;0.40;0.40;;;16.50;67.30;;;;;;5006388;28;20496;-76
2023/03/28 07:19:10;;;;;;;0.63;0.20;;;16.40;67.30;;;;;;5001204;28;20046;-78
2023/03/28 07:21:35;;;;;;;0.70;0.55;;;16.40;67.30;;;;;;5001915;28;20448;-76
2023/03/28 07:24:01;;;;;;;0.30;0.30;;;16.40;67.20;;;;;;5000112;28;20053;-77
2023/03/28 07:26:27;;;;;;;0.30;0.30;;;16.40;67.10;;;;;;5003650;28;20154;-76
2023/03/28 07:28:54;;;;;;;0.40;0.20;;;16.40;67.20;;;;;;4986296;28;20133;-76
2023/03/28 07:31:20;;;;;;;0.73;0.40;;;16.40;67.20;;;;;;5020062;28;20515;-76
2023/03/28 07:33:45;;;;;;;0.30;0.30;;;16.40;67.00;;;;;;5006335;28;20057;-77
2023/03/28 07:36:16;;;;;;;0.30;0.30;;;16.40;67.00;;;;;;4987245;28;20070;-76
2023/03/28 07:38:41;;;;;;;1.23;0.30;;;16.40;67.00;;;;;;5006820;28;20527;-77
2023/03/28 07:41:07;;;;;;;1.02;0.32;;;16.50;66.90;;;;;;5017419;28;20092;-76
2023/03/28 07:43:33;;;;;;;0.70;0.45;;;16.50;66.80;;;;;;5002784;28;20053;-76
2023/03/28 07:46:02;;;;;;;0.60;0.20;;;16.50;66.80;;;;;;5002967;28;20050;-76
2023/03/28 07:48:28;;;;;;;0.32;0.32;;;16.50;66.80;;;;;;5000360;28;20137;-77
2023/03/28 07:50:54;;;;;;;2.72;0.45;;;16.50;66.80;;;;;;5000298;28;20558;-76
2023/03/28 07:53:20;;;;;;;0.20;0.20;;;16.50;66.70;;;;;;4997673;28;20033;-75
2023/03/28 07:55:47;;;;;;;0.30;0.30;;;16.50;66.70;;;;;;5006616;28;20038;-75
2023/03/28 07:58:12;;;;;;;1.40;0.20;;;16.50;66.70;;;;;;5000381;28;20068;-76
2023/03/28 08:00:38;;;;;;;0.47;0.10;;;16.50;66.60;;;;;;5002207;28;20519;-76
2023/03/28 08:03:03;;;;;;;0.20;0.20;;;16.50;66.70;;;;;;5019282;28;20045;-76
2023/03/28 08:05:32;;;;;;;0.20;0.20;;;16.50;66.70;;;;;;5007451;28;20534;-75
2023/03/28 08:07:58;;;;;;;0.40;0.40;;;16.50;66.60;;;;;;5005428;28;20039;-76
2023/03/28 08:10:24;;;;;;;0.22;0.20;;;16.50;66.50;;;;;;5000054;28;20183;-76
2023/03/28 08:12:50;;;;;;;0.50;0.50;;;16.60;66.30;;;;;;5002843;28;20694;-75
2023/03/28 08:15:16;;;;;;;0.30;0.30;;;16.60;66.30;;;;;;5002368;28;20037;-76
2023/03/28 08:17:41;;;;;;;0.15;0.10;;;16.50;66.30;;;;;;5007195;28;20045;-76
2023/03/28 08:20:09;;;;;;;0.32;0.30;;;16.50;66.40;;;;;;4998712;28;20046;-76
2023/03/28 08:22:35;;;;;;;0.38;0.20;;;16.50;66.50;;;;;;4987098;28;20111;-75
2023/03/28 08:25:02;;;;;;;0.40;0.40;;;16.60;66.40;;;;;;4994958;28;20057;-79
2023/03/28 08:27:27;;;;;;;0.45;0.35;;;16.50;66.30;;;;;;4972132;28;20081;-78
2023/03/28 08:29:53;;;;;;;0.20;0.20;;;16.50;66.20;;;;;;4989103;28;20096;-78
2023/03/28 08:32:19;;;;;;;0.17;0.17;;;16.50;66.20;;;;;;4980314;28;20667;-79
2023/03/28 08:34:45;;;;;;;1.02;0.20;;;16.50;66.20;;;;;;4967745;28;20049;-78
2023/03/28 08:37:10;;;;;;;0.20;0.10;;;16.60;66.10;;;;;;4968858;28;20096;-77
2023/03/28 08:39:38;;;;;;;0.30;0.30;;;16.50;65.90;;;;;;4987561;28;20045;-77
2023/03/28 08:42:19;;;;;;;1.23;0.30;;;16.60;65.80;;;;;;4985504;28;20135;-78
2023/03/28 08:45:09;;;;;;;0.10;0.10;;;16.70;66.00;;;;;;4982422;28;20261;-78
2023/03/28 08:47:51;;;;;;;0.25;0.20;;;16.60;66.30;;;;;;4983472;28;20054;-80
2023/03/28 08:50:27;;;;;;;0.40;0.20;;;16.60;66.30;;;;;;4968978;28;20050;-82
2023/03/28 08:52:53;;;;;;;0.28;0.28;;;16.60;66.10;;;;;;4965856;28;20053;-80
2023/03/28 08:55:30;;;;;;;0.30;0.30;;;16.70;66.20;;;;;;4982646;28;20156;-79
2023/03/28 08:57:56;;;;;;;0.30;0.22;;;16.60;66.10;;;;;;4998206;28;20519;-79
2023/03/28 09:00:23;;;;;;;0.50;0.50;;;16.60;66.30;;;;;;5007804;28;20038;-78
2023/03/28 09:02:49;;;;;;;2.05;0.35;;;16.60;66.20;;;;;;5009521;28;20034;-78
2023/03/28 09:05:15;;;;;;;0.20;0.20;;;16.60;66.20;;;;;;4991738;28;20029;-77
2023/03/28 09:08:06;;;;;;;0.10;0.10;;;16.70;66.20;;;;;;5007191;28;20112;-78
2023/03/28 09:10:46;;;;;;;0.32;0.32;;;16.60;66.10;;;;;;5007501;28;20034;-78
2023/03/28 09:13:22;;;;;;;0.13;0.13;;;16.60;66.00;;;;;;4973912;28;20040;-78
2023/03/28 09:16:26;;;;;;;0.25;0.17;;;16.60;66.00;;;;;;5004686;28;20077;-77
2023/03/28 09:19:10;;;;;;;0.20;0.20;;;16.70;66.10;;;;;;4998521;28;20050;-79
2023/03/28 09:21:48;;;;;;;0.20;0.10;;;16.70;66.00;;;;;;5004936;28;20030;-78
2023/03/28 09:24:34;;;;;;;0.30;0.20;;;16.70;66.00;;;;;;5008445;28;20092;-79
2023/03/28 09:27:27;;;;;;;0.20;0.20;;;16.70;65.90;;;;;;5006658;28;20079;-79
2023/03/28 09:29:55;;;;;;;0.20;0.20;;;16.80;65.90;;;;;;5004881;28;20442;-79
2023/03/28 09:32:29;;;;;;;0.47;0.30;;;16.70;65.90;;;;;;5003741;28;20463;-76
2023/03/28 09:34:55;;;;;;;0.90;0.35;;;16.80;65.50;;;;;;5002991;28;20546;-79
2023/03/28 09:37:25;;;;;;;0.15;0.15;;;16.70;65.80;;;;;;5004164;28;20115;-79
2023/03/28 09:39:52;;;;;;;0.28;0.28;;;16.80;65.80;;;;;;5014931;28;20042;-78
2023/03/28 09:42:36;;;;;;;0.28;0.20;;;16.80;65.80;;;;;;5015142;28;20133;-76
2023/03/28 09:45:07;;;;;;;0.30;0.20;;;16.80;65.80;;;;;;5004162;28;20584;-78
2023/03/28 09:47:33;;;;;;;0.40;0.30;;;16.80;65.80;;;;;;5003236;28;20056;-78
2023/03/28 09:49:59;;;;;;;1.45;0.35;;;16.80;65.80;;;;;;5007765;28;20038;-78
2023/03/28 09:52:24;;;;;;;0.28;0.20;;;16.80;65.80;;;;;;5004433;28;20491;-78
2023/03/28 09:54:50;;;;;;;0.20;0.20;;;16.80;65.70;;;;;;5002554;28;20041;-78
2023/03/28 09:57:15;;;;;;;0.30;0.20;;;16.80;65.70;;;;;;4986584;28;20103;-78
2023/03/28 09:59:41;;;;;;;0.20;0.20;;;16.80;65.50;;;;;;5001377;28;20697;-78
2023/03/28 10:02:24;;;;;;;0.30;0.20;;;16.80;65.50;;;;;;5004498;28;20064;-79
2023/03/28 10:04:51;;;;;;;0.28;0.22;;;16.90;65.40;;;;;;5001931;28;20088;-78
2023/03/28 10:07:33;;;;;;;0.20;0.17;;;16.90;65.30;;;;;;5004158;28;20052;-78
2023/03/28 10:10:06;;;;;;;0.80;0.30;;;16.80;65.30;;;;;;5006176;28;20058;-78
2023/03/28 10:12:34;;;;;;;0.30;0.30;;;16.90;65.40;;;;;;4987772;28;20136;-77
2023/03/28 10:14:59;;;;;;;0.20;0.20;;;16.90;65.40;;;;;;5003287;28;20053;-79
2023/03/28 10:17:27;;;;;;;0.20;0.20;;;16.90;65.40;;;;;;5001195;28;20127;-80
2023/03/28 10:19:58;;;;;;;0.20;0.20;;;16.90;65.40;;;;;;5003802;28;20148;-77
2023/03/28 10:22:29;;;;;;;0.20;0.20;;;16.90;65.50;;;;;;5000232;28;20053;-77
2023/03/28 10:24:55;;;;;;;0.30;0.30;;;16.90;65.40;;;;;;4985925;28;20042;-76
2023/03/28 10:27:32;;;;;;;0.30;0.30;;;16.90;65.50;;;;;;4987050;28;20045;-78
2023/03/28 10:30:06;;;;;;;0.35;0.25;;;16.90;65.50;;;;;;5002324;28;20042;-81
2023/03/28 10:32:32;;;;;;;;;;;16.90;65.40;;;;;;5002148;28;20191;-78
2023/03/28 10:35:17;;;;;;;0.10;0.10;;;16.90;65.40;;;;;;4998443;28;20016;-80
2023/03/28 10:37:45;;;;;;;0.63;0.20;;;16.90;65.60;;;;;;4999467;28;20107;-79
2023/03/28 10:40:17;;;;;;;0.45;0.45;;;16.90;66.00;;;;;;5001573;28;20046;-76
2023/03/28 10:42:44;;;;;;;0.80;0.45;;;16.90;65.70;;;;;;5000652;28;20054;-76
2023/03/28 10:45:22;;;;;;;0.55;0.20;;;17.00;65.50;;;;;;5001205;28;20069;-77
2023/03/28 10:47:52;;;;;;;0.40;0.30;;;16.90;65.50;;;;;;4985666;28;20049;-76
2023/03/28 10:50:26;;;;;;;0.90;0.25;;;17.00;65.50;;;;;;4985404;28;20045;-76
2023/03/28 10:52:52;;;;;;;;;;;17.00;65.50;;;;;;4999964;28;20514;-77
2023/03/28 10:55:22;;;;;;;1.65;0.28;;;17.00;65.40;;;;;;5016387;28;19923;-76
2023/03/28 10:57:59;;;;;;;0.40;0.20;;;17.00;65.40;;;;;;5001014;28;20517;-77
2023/03/28 11:00:34;;;;;;;0.57;0.20;;;17.00;65.40;;;;;;4985604;28;20053;-76
2023/03/28 11:03:02;;;;;;;;;;;17.00;65.40;;;;;;5002850;28;20594;-77
2023/03/28 11:05:31;;;;;;;0.43;0.10;;;17.00;65.40;;;;;;5002935;28;20043;-77
2023/03/28 11:08:09;;;;;;;0.20;0.20;;;17.00;65.30;;;;;;5002373;28;20614;-77
2023/03/28 11:11:04;;;;;;;0.50;0.20;;;17.00;65.30;;;;;;5004006;28;20060;-76
2023/03/28 11:13:42;;;;;;;0.50;0.20;;;17.00;65.20;;;;;;5000072;28;20581;-76
2023/03/28 11:16:40;;;;;;;0.10;0.10;;;17.00;65.50;;;;;;5001711;28;20115;-77
2023/03/28 11:19:44;;;;;;;0.28;0.20;;;17.00;65.50;;;;;;5002752;28;20053;-76
2023/03/28 11:22:19;;;;;;;0.30;0.30;;;16.90;65.50;;;;;;4993296;28;20037;-77
2023/03/28 11:24:51;;;;;;;0.20;0.20;;;17.00;65.50;;;;;;5001582;28;20042;-77
2023/03/28 11:27:38;;;;;;;0.20;0.20;;;16.90;65.40;;;;;;5001548;28;20145;-77
2023/03/28 11:30:14;;;;;;;0.10;0.10;;;16.90;65.30;;;;;;5005110;28;20038;-76
2023/03/28 11:32:49;;;;;;;0.20;0.10;;;16.90;65.30;;;;;;4998446;28;20512;-76
2023/03/28 11:35:16;;;;;;;0.10;0.10;;;16.90;65.30;;;;;;5003335;28;20061;-77
2023/03/28 11:37:54;;;;;;;0.20;0.20;;;16.90;65.40;;;;;;4999456;28;20120;-77
2023/03/28 11:40:39;;;;;;;0.10;0.10;;;16.90;65.30;;;;;;4998183;28;20529;-77
2023/03/28 11:43:05;;;;;;;0.10;0.10;;;17.00;65.40;;;;;;5015172;28;20076;-76
2023/03/28 11:45:45;;;;;;;0.30;0.30;;;16.90;65.20;;;;;;5002683;28;20078;-76
2023/03/28 11:48:23;;;;;;;0.20;0.20;;;16.90;65.30;;;;;;4982695;28;20049;-76
2023/03/28 11:51:26;;;;;;;0.20;0.20;;;17.00;65.20;;;;;;5001548;28;20038;-77
2023/03/28 11:54:15;;;;;;;0.20;0.20;;;17.00;65.10;;;;;;4999266;28;20120;-76
2023/03/28 11:56:58;;;;;;;0.10;0.10;;;17.00;65.00;;;;;;5003850;28;20129;-76
2023/03/28 11:59:39;;;;;;;0.20;0.20;;;17.00;65.00;;;;;;5001581;28;20056;-76
2023/03/28 12:02:41;;;;;;;0.43;0.20;;;17.00;65.10;;;;;;5004795;28;20030;-77
2023/03/28 12:05:35;;;;;;;0.20;0.20;;;17.00;65.00;;;;;;5002236;28;20050;-76
2023/03/28 12:08:16;;;;;;;0.32;0.20;;;17.00;65.10;;;;;;5004035;28;20483;-76
2023/03/28 12:10:42;;;;;;;0.10;0.10;;;17.00;65.10;;;;;;4990198;28;20050;-76
2023/03/28 12:13:13;;;;;;;0.50;0.30;;;17.00;65.10;;;;;;5004921;28;20057;-77
2023/03/28 12:16:06;;;;;;;0.32;0.30;;;17.00;65.10;;;;;;5005108;28;20047;-76
2023/03/28 12:18:42;;;;;;;0.22;0.20;;;17.00;65.10;;;;;;5016020;28;20322;-80
2023/03/28 12:21:13;;;;;;;1.65;0.20;;;17.00;65.10;;;;;;5006063;28;20054;-80
2023/03/28 12:23:49;;;;;;;0.38;0.20;;;17.00;65.10;;;;;;5004094;28;20068;-76
2023/03/28 12:26:47;;;;;;;0.30;0.30;;;17.00;65.10;;;;;;5001753;28;20125;-79
2023/03/28 12:29:24;;;;;;;0.20;0.20;;;17.00;65.10;;;;;;4980916;28;20050;-79
2023/03/28 12:31:56;;;;;;;0.20;0.17;;;17.00;65.10;;;;;;4948228;28;20688;-79
2023/03/28 12:34:50;;;;;;;0.30;0.30;;;17.00;65.90;;;;;;4961948;28;20532;-79
2023/03/28 12:37:29;;;;;;;0.32;0.20;;;17.00;65.10;;;;;;4963694;28;20133;-79
2023/03/28 12:40:14;;;;;;;0.20;0.20;;;17.00;65.10;;;;;;4965864;28;20054;-79
2023/03/28 12:42:43;;;;;;;0.20;0.20;;;17.00;65.10;;;;;;4978903;28;20083;-78
2023/03/28 12:45:15;;;;;;;0.10;0.10;;;17.00;65.10;;;;;;4946852;28;20452;-79
2023/03/28 12:47:41;;;;;;;0.32;0.20;;;17.10;65.20;;;;;;4947116;28;21242;-79
2023/03/28 12:50:20;;;;;;;0.65;0.25;;;17.00;65.10;;;;;;4948836;28;20042;-79
2023/03/28 12:52:46;;;;;;;0.20;0.10;;;17.10;65.10;;;;;;4961292;28;20538;-78
2023/03/28 12:55:23;;;;;;;0.22;0.15;;;17.00;65.10;;;;;;4964369;28;20041;-77
2023/03/28 12:57:49;;;;;;;0.38;0.20;;;17.00;65.10;;;;;;4981438;28;20050;-78
2023/03/28 13:00:18;;;;;;;0.10;0.10;;;17.10;65.20;;;;;;4964611;28;20038;-78
2023/03/28 13:03:25;;;;;;;0.35;0.30;;;17.10;65.30;;;;;;4974886;28;20046;-77
2023/03/28 13:06:21;;;;;;;0.25;0.25;;;17.10;65.20;;;;;;4640628;28;10001106;-77